Aviation Digital Data Service (ADDS)

Output produced by TAFs form (2348 UTC 18 July 2018)
found at http://www.aviationweather.gov/adds/tafs/
 
RJFM 182300Z 32004KT 280V350 CAVOK 28/23 Q1010
TAF RJFM 182308Z 1900/2006 11006KT 9999 FEW030 
     BECMG 1912/1915 31006KT 
     BECMG 1921/2000 03013KT